sensor_id;sensor_type;location;lat;lon;timestamp;pressure;altitude;pressure_sealevel;temperature;humidity
54872;BME280;43914;57.680;11.982;2022-11-28T00:01:23;101184.23;;;6.23;100.00
54872;BME280;43914;57.680;11.982;2022-11-28T00:03:51;101177.22;;;6.22;100.00
54872;BME280;43914;57.680;11.982;2022-11-28T00:06:17;101178.25;;;6.25;100.00
54872;BME280;43914;57.680;11.982;2022-11-28T00:08:43;101176.58;;;6.24;100.00
54872;BME280;43914;57.680;11.982;2022-11-28T00:11:11;101179.94;;;6.26;100.00
54872;BME280;43914;57.680;11.982;2022-11-28T00:13:39;101169.05;;;6.24;100.00
54872;BME280;43914;57.680;11.982;2022-11-28T00:16:06;101179.88;;;6.22;100.00
54872;BME280;43914;57.680;11.982;2022-11-28T00:18:33;101173.34;;;6.20;100.00
54872;BME280;43914;57.680;11.982;2022-11-28T00:21:08;101170.20;;;6.21;100.00
54872;BME280;43914;57.680;11.982;2022-11-28T00:23:36;101171.66;;;6.19;100.00
54872;BME280;43914;57.680;11.982;2022-11-28T00:26:16;101168.99;;;6.19;100.00
54872;BME280;43914;57.680;11.982;2022-11-28T00:28:40;101163.81;;;6.18;100.00
54872;BME280;43914;57.680;11.982;2022-11-28T00:31:11;101167.81;;;6.18;100.00
54872;BME280;43914;57.680;11.982;2022-11-28T00:33:38;101164.30;;;6.17;100.00
54872;BME280;43914;57.680;11.982;2022-11-28T00:36:05;101164.94;;;6.15;100.00
54872;BME280;43914;57.680;11.982;2022-11-28T00:38:32;101164.94;;;6.15;100.00
54872;BME280;43914;57.680;11.982;2022-11-28T00:41:07;101162.42;;;6.14;100.00
54872;BME280;43914;57.680;11.982;2022-11-28T00:43:36;101155.54;;;6.11;100.00
54872;BME280;43914;57.680;11.982;2022-11-28T00:46:03;101157.73;;;6.12;100.00
54872;BME280;43914;57.680;11.982;2022-11-28T00:48:29;101160.88;;;6.11;100.00
54872;BME280;43914;57.680;11.982;2022-11-28T00:51:17;101162.37;;;6.10;100.00
54872;BME280;43914;57.680;11.982;2022-11-28T00:53:46;101158.63;;;6.06;100.00
54872;BME280;43914;57.680;11.982;2022-11-28T00:56:15;101153.93;;;6.04;100.00
54872;BME280;43914;57.680;11.982;2022-11-28T00:58:43;101149.45;;;6.05;100.00
54872;BME280;43914;57.680;11.982;2022-11-28T01:01:12;101154.92;;;6.03;100.00
54872;BME280;43914;57.680;11.982;2022-11-28T01:03:40;101151.77;;;6.04;100.00
54872;BME280;43914;57.680;11.982;2022-11-28T01:06:07;101154.57;;;6.02;100.00
54872;BME280;43914;57.680;11.982;2022-11-28T01:08:34;101159.18;;;6.00;100.00
54872;BME280;43914;57.680;11.982;2022-11-28T01:11:01;101151.81;;;5.98;100.00
54872;BME280;43914;57.680;11.982;2022-11-28T01:13:27;101152.80;;;5.97;100.00
54872;BME280;43914;57.680;11.982;2022-11-28T01:15:53;101145.44;;;5.95;100.00
54872;BME280;43914;57.680;11.982;2022-11-28T01:18:20;101143.88;;;5.92;100.00
54872;BME280;43914;57.680;11.982;2022-11-28T01:20:46;101148.11;;;5.95;100.00
54872;BME280;43914;57.680;11.982;2022-11-28T01:23:12;101142.08;;;5.93;100.00
54872;BME280;43914;57.680;11.982;2022-11-28T01:25:38;101141.59;;;5.94;100.00
54872;BME280;43914;57.680;11.982;2022-11-28T01:28:04;101137.02;;;5.90;100.00
54872;BME280;43914;57.680;11.982;2022-11-28T01:30:30;101135.98;;;5.87;100.00
54872;BME280;43914;57.680;11.982;2022-11-28T01:32:57;101135.47;;;5.87;100.00
54872;BME280;43914;57.680;11.982;2022-11-28T01:35:23;101127.00;;;5.88;100.00
54872;BME280;43914;57.680;11.982;2022-11-28T01:37:49;101134.66;;;5.87;100.00
54872;BME280;43914;57.680;11.982;2022-11-28T01:40:15;101130.30;;;5.86;100.00
54872;BME280;43914;57.680;11.982;2022-11-28T01:42:41;101122.08;;;5.83;100.00
54872;BME280;43914;57.680;11.982;2022-11-28T01:45:26;101121.09;;;5.84;100.00
54872;BME280;43914;57.680;11.982;2022-11-28T01:47:55;101108.12;;;5.75;100.00
54872;BME280;43914;57.680;11.982;2022-11-28T01:50:23;101109.89;;;5.81;100.00
54872;BME280;43914;57.680;11.982;2022-11-28T01:52:52;101120.05;;;5.81;100.00
54872;BME280;43914;57.680;11.982;2022-11-28T01:55:23;101115.00;;;5.78;100.00
54872;BME280;43914;57.680;11.982;2022-11-28T01:57:51;101112.47;;;5.76;100.00
54872;BME280;43914;57.680;11.982;2022-11-28T02:00:22;101108.12;;;5.75;100.00
54872;BME280;43914;57.680;11.982;2022-11-28T02:02:55;101118.31;;;5.76;100.00
54872;BME280;43914;57.680;11.982;2022-11-28T02:05:26;101112.63;;;5.75;100.00
54872;BME280;43914;57.680;11.982;2022-11-28T02:07:52;101105.61;;;5.74;100.00
54872;BME280;43914;57.680;11.982;2022-11-28T02:19:17;101098.37;;;5.70;100.00
54872;BME280;43914;57.680;11.982;2022-11-28T02:27:27;101099.02;;;5.68;100.00
54872;BME280;43914;57.680;11.982;2022-11-28T02:35:25;101099.94;;;5.63;100.00
54872;BME280;43914;57.680;11.982;2022-11-28T02:43:58;101103.12;;;5.62;100.00
54872;BME280;43914;57.680;11.982;2022-11-28T02:46:55;101096.08;;;5.61;100.00
54872;BME280;43914;57.680;11.982;2022-11-28T02:49:33;101093.41;;;5.61;100.00
54872;BME280;43914;57.680;11.982;2022-11-28T02:52:21;101080.02;;;5.57;100.00
54872;BME280;43914;57.680;11.982;2022-11-28T02:54:46;101095.38;;;5.59;100.00
54872;BME280;43914;57.680;11.982;2022-11-28T02:57:20;101093.56;;;5.60;100.00
54872;BME280;43914;57.680;11.982;2022-11-28T02:59:49;101100.71;;;5.59;100.00
54872;BME280;43914;57.680;11.982;2022-11-28T03:02:25;101101.56;;;5.60;100.00
54872;BME280;43914;57.680;11.982;2022-11-28T03:08:08;101090.68;;;5.57;100.00
54872;BME280;43914;57.680;11.982;2022-11-28T03:10:58;101093.70;;;5.58;100.00
54872;BME280;43914;57.680;11.982;2022-11-28T03:19:21;101103.03;;;5.58;100.00
54872;BME280;43914;57.680;11.982;2022-11-28T03:24:59;101093.86;;;5.57;100.00
54872;BME280;43914;57.680;11.982;2022-11-28T03:30:00;101085.29;;;5.53;100.00
54872;BME280;43914;57.680;11.982;2022-11-28T03:32:33;101086.62;;;5.53;100.00
54872;BME280;43914;57.680;11.982;2022-11-28T03:35:12;101087.83;;;5.55;100.00
54872;BME280;43914;57.680;11.982;2022-11-28T03:37:37;101089.51;;;5.56;100.00
54872;BME280;43914;57.680;11.982;2022-11-28T03:40:16;101091.31;;;5.55;100.00
54872;BME280;43914;57.680;11.982;2022-11-28T03:42:52;101087.95;;;5.53;100.00
54872;BME280;43914;57.680;11.982;2022-11-28T03:45:22;101090.49;;;5.55;100.00
54872;BME280;43914;57.680;11.982;2022-11-28T03:48:00;101087.13;;;5.53;100.00
54872;BME280;43914;57.680;11.982;2022-11-28T03:50:27;101083.95;;;5.53;100.00
54872;BME280;43914;57.680;11.982;2022-11-28T03:53:06;101089.16;;;5.55;100.00
54872;BME280;43914;57.680;11.982;2022-11-28T03:55:38;101091.31;;;5.55;100.00
54872;BME280;43914;57.680;11.982;2022-11-28T03:58:26;101086.49;;;5.55;100.00
54872;BME280;43914;57.680;11.982;2022-11-28T04:04:06;101085.45;;;5.52;100.00
54872;BME280;43914;57.680;11.982;2022-11-28T04:09:28;101093.80;;;5.53;100.00
54872;BME280;43914;57.680;11.982;2022-11-28T04:11:53;101093.80;;;5.53;100.00
54872;BME280;43914;57.680;11.982;2022-11-28T04:14:31;101095.61;;;5.52;100.00
54872;BME280;43914;57.680;11.982;2022-11-28T04:20:11;101081.58;;;5.50;100.00
54872;BME280;43914;57.680;11.982;2022-11-28T04:22:43;101094.44;;;5.51;100.00
54872;BME280;43914;57.680;11.982;2022-11-28T04:25:14;101099.77;;;5.51;100.00
54872;BME280;43914;57.680;11.982;2022-11-28T04:27:55;101103.77;;;5.51;100.00
54872;BME280;43914;57.680;11.982;2022-11-28T04:30:22;101099.41;;;5.49;100.00
54872;BME280;43914;57.680;11.982;2022-11-28T04:32:51;101103.41;;;5.49;100.00
54872;BME280;43914;57.680;11.982;2022-11-28T04:35:32;101110.78;;;5.52;100.00
54872;BME280;43914;57.680;11.982;2022-11-28T04:38:01;101105.92;;;5.51;100.00
54872;BME280;43914;57.680;11.982;2022-11-28T04:40:31;101103.41;;;5.49;100.00
54872;BME280;43914;57.680;11.982;2022-11-28T04:43:06;101104.23;;;5.50;100.00
54872;BME280;43914;57.680;11.982;2022-11-28T04:45:36;101094.08;;;5.49;100.00
54872;BME280;43914;57.680;11.982;2022-11-28T04:48:05;101101.57;;;5.50;100.00
54872;BME280;43914;57.680;11.982;2022-11-28T04:50:47;101100.40;;;5.48;100.00
54872;BME280;43914;57.680;11.982;2022-11-28T04:53:37;101097.23;;;5.49;100.00
54872;BME280;43914;57.680;11.982;2022-11-28T04:56:15;101106.20;;;5.48;100.00
54872;BME280;43914;57.680;11.982;2022-11-28T04:58:44;101100.66;;;5.45;100.00
54872;BME280;43914;57.680;11.982;2022-11-28T05:01:15;101100.17;;;5.46;100.00
54872;BME280;43914;57.680;11.982;2022-11-28T05:03:43;101101.16;;;5.45;100.00
54872;BME280;43914;57.680;11.982;2022-11-28T05:06:09;101108.66;;;5.45;100.00
54872;BME280;43914;57.680;11.982;2022-11-28T05:08:35;101104.94;;;5.42;100.00
54872;BME280;43914;57.680;11.982;2022-11-28T05:11:02;101104.59;;;5.41;100.00
54872;BME280;43914;57.680;11.982;2022-11-28T05:13:28;101102.78;;;5.42;100.00
54872;BME280;43914;57.680;11.982;2022-11-28T05:15:54;101097.58;;;5.40;100.00
54872;BME280;43914;57.680;11.982;2022-11-28T05:18:20;101099.61;;;5.42;100.00
54872;BME280;43914;57.680;11.982;2022-11-28T05:20:46;101097.80;;;5.43;100.00
54872;BME280;43914;57.680;11.982;2022-11-28T05:23:12;101100.47;;;5.43;100.00
54872;BME280;43914;57.680;11.982;2022-11-28T05:25:38;101112.66;;;5.45;100.00
54872;BME280;43914;57.680;11.982;2022-11-28T05:28:04;101107.83;;;5.45;100.00
54872;BME280;43914;57.680;11.982;2022-11-28T05:30:30;101105.98;;;5.45;100.00
54872;BME280;43914;57.680;11.982;2022-11-28T05:32:57;101102.63;;;5.43;100.00
54872;BME280;43914;57.680;11.982;2022-11-28T05:35:24;101108.30;;;5.44;100.00
54872;BME280;43914;57.680;11.982;2022-11-28T05:37:49;101106.14;;;5.44;100.00
54872;BME280;43914;57.680;11.982;2022-11-28T05:40:15;101103.95;;;5.43;100.00
54872;BME280;43914;57.680;11.982;2022-11-28T05:42:42;101110.97;;;5.44;100.00
54872;BME280;43914;57.680;11.982;2022-11-28T05:45:08;101108.30;;;5.44;100.00
54872;BME280;43914;57.680;11.982;2022-11-28T05:47:34;101110.27;;;5.42;100.00
54872;BME280;43914;57.680;11.982;2022-11-28T05:50:00;101088.28;;;5.30;100.00
54872;BME280;43914;57.680;11.982;2022-11-28T05:52:27;101106.27;;;5.42;100.00
54872;BME280;43914;57.680;11.982;2022-11-28T05:54:55;101106.62;;;5.43;100.00
54872;BME280;43914;57.680;11.982;2022-11-28T05:57:21;101108.59;;;5.41;100.00
54872;BME280;43914;57.680;11.982;2022-11-28T05:59:47;101114.27;;;5.42;100.00
54872;BME280;43914;57.680;11.982;2022-11-28T06:02:13;101111.25;;;5.41;100.00
54872;BME280;43914;57.680;11.982;2022-11-28T06:04:39;101113.57;;;5.40;100.00
54872;BME280;43914;57.680;11.982;2022-11-28T06:07:06;101114.27;;;5.42;100.00
54872;BME280;43914;57.680;11.982;2022-11-28T06:09:33;101112.94;;;5.42;100.00
54872;BME280;43914;57.680;11.982;2022-11-28T06:11:59;101107.48;;;5.44;100.00
54872;BME280;43914;57.680;11.982;2022-11-28T06:14:25;101108.17;;;5.46;100.00
54872;BME280;43914;57.680;11.982;2022-11-28T06:16:51;101112.94;;;5.42;100.00
54872;BME280;43914;57.680;11.982;2022-11-28T06:19:17;101116.23;;;5.40;100.00
54872;BME280;43914;57.680;11.982;2022-11-28T06:21:43;101115.41;;;5.40;100.00
54872;BME280;43914;57.680;11.982;2022-11-28T06:24:09;101111.54;;;5.38;100.00
54872;BME280;43914;57.680;11.982;2022-11-28T06:26:35;101116.52;;;5.37;100.00
54872;BME280;43914;57.680;11.982;2022-11-28T06:29:01;101117.86;;;5.37;100.00
54872;BME280;43914;57.680;11.982;2022-11-28T06:31:28;101116.17;;;5.36;100.00
54872;BME280;43914;57.680;11.982;2022-11-28T06:33:55;101119.82;;;5.35;100.00
54872;BME280;43914;57.680;11.982;2022-11-28T06:36:22;101122.48;;;5.35;100.00
54872;BME280;43914;57.680;11.982;2022-11-28T06:38:50;101116.81;;;5.34;100.00
54872;BME280;43914;57.680;11.982;2022-11-28T06:41:19;101119.82;;;5.35;100.00
54872;BME280;43914;57.680;11.982;2022-11-28T06:43:45;101116.33;;;5.34;100.00
54872;BME280;43914;57.680;11.982;2022-11-28T06:46:13;101120.80;;;5.34;100.00
54872;BME280;43914;57.680;11.982;2022-11-28T06:48:40;101121.31;;;5.33;100.00
54872;BME280;43914;57.680;11.982;2022-11-28T06:51:06;101123.81;;;5.35;100.00
54872;BME280;43914;57.680;11.982;2022-11-28T06:53:33;101121.16;;;5.35;100.00
54872;BME280;43914;57.680;11.982;2022-11-28T06:56:06;101119.98;;;5.33;100.00
54872;BME280;43914;57.680;11.982;2022-11-28T06:58:33;101123.47;;;5.34;100.00
54872;BME280;43914;57.680;11.982;2022-11-28T07:01:13;101120.96;;;5.32;100.00
54872;BME280;43914;57.680;11.982;2022-11-28T07:03:40;101128.45;;;5.33;100.00
54872;BME280;43914;57.680;11.982;2022-11-28T07:06:08;101127.75;;;5.31;100.00
54872;BME280;43914;57.680;11.982;2022-11-28T07:08:35;101133.43;;;5.32;100.00
54872;BME280;43914;57.680;11.982;2022-11-28T07:11:19;101134.92;;;5.30;100.00
54872;BME280;43914;57.680;11.982;2022-11-28T07:13:47;101138.06;;;5.30;100.00
54872;BME280;43914;57.680;11.982;2022-11-28T07:16:17;101136.86;;;5.28;100.00
54872;BME280;43914;57.680;11.982;2022-11-28T07:18:47;101133.48;;;5.26;100.00
54872;BME280;43914;57.680;11.982;2022-11-28T07:21:14;101138.47;;;5.25;100.00
54872;BME280;43914;57.680;11.982;2022-11-28T07:23:42;101141.13;;;5.25;100.00
54872;BME280;43914;57.680;11.982;2022-11-28T07:26:09;101146.11;;;5.24;100.00
54872;BME280;43914;57.680;11.982;2022-11-28T07:28:36;101139.67;;;5.27;100.00
54872;BME280;43914;57.680;11.982;2022-11-28T07:31:13;101147.67;;;5.27;100.00
54872;BME280;43914;57.680;11.982;2022-11-28T07:33:43;101152.14;;;5.26;100.00
54872;BME280;43914;57.680;11.982;2022-11-28T07:36:13;101148.15;;;5.26;100.00
54872;BME280;43914;57.680;11.982;2022-11-28T07:38:41;101150.69;;;5.28;100.00
54872;BME280;43914;57.680;11.982;2022-11-28T07:41:10;101158.17;;;5.28;100.00
54872;BME280;43914;57.680;11.982;2022-11-28T07:43:37;101161.70;;;5.29;100.00
54872;BME280;43914;57.680;11.982;2022-11-28T07:46:06;101156.37;;;5.29;100.00
54872;BME280;43914;57.680;11.982;2022-11-28T07:48:35;101164.23;;;5.30;100.00
54872;BME280;43914;57.680;11.982;2022-11-28T07:51:06;101168.94;;;5.32;100.00
54872;BME280;43914;57.680;11.982;2022-11-28T07:53:35;101168.08;;;5.32;100.00
54872;BME280;43914;57.680;11.982;2022-11-28T07:56:07;101180.30;;;5.34;100.00
54872;BME280;43914;57.680;11.982;2022-11-28T07:58:37;101175.31;;;5.36;100.00
54872;BME280;43914;57.680;11.982;2022-11-28T08:01:16;101174.46;;;5.35;100.00
54872;BME280;43914;57.680;11.982;2022-11-28T08:03:41;101173.20;;;5.39;100.00
54872;BME280;43914;57.680;11.982;2022-11-28T08:06:09;101184.56;;;5.41;100.00
54872;BME280;43914;57.680;11.982;2022-11-28T08:08:36;101173.61;;;5.44;100.00
54872;BME280;43914;57.680;11.982;2022-11-28T08:11:05;101176.03;;;5.47;100.00
54872;BME280;43914;57.680;11.982;2022-11-28T08:13:33;101171.88;;;5.49;100.00
54872;BME280;43914;57.680;11.982;2022-11-28T08:16:08;101177.43;;;5.52;100.00
54872;BME280;43914;57.680;11.982;2022-11-28T08:18:39;101175.46;;;5.54;100.00
54872;BME280;43914;57.680;11.982;2022-11-28T08:21:11;101172.00;;;5.57;100.00
54872;BME280;43914;57.680;11.982;2022-11-28T08:23:36;101177.34;;;5.57;100.00
54872;BME280;43914;57.680;11.982;2022-11-28T08:26:04;101184.92;;;5.62;100.00
54872;BME280;43914;57.680;11.982;2022-11-28T08:28:33;101175.94;;;5.63;100.00
54872;BME280;43914;57.680;11.982;2022-11-28T08:31:15;101180.64;;;5.65;100.00
54872;BME280;43914;57.680;11.982;2022-11-28T08:33:39;101177.34;;;5.67;100.00
54872;BME280;43914;57.680;11.982;2022-11-28T08:36:07;101171.38;;;5.69;100.00
54872;BME280;43914;57.680;11.982;2022-11-28T08:38:35;101182.61;;;5.73;100.00
54872;BME280;43914;57.680;11.982;2022-11-28T08:41:04;101177.62;;;5.74;100.00
54872;BME280;43914;57.680;11.982;2022-11-28T08:43:35;101173.81;;;5.76;100.00
54872;BME280;43914;57.680;11.982;2022-11-28T08:46:04;101181.69;;;5.78;100.00
54872;BME280;43914;57.680;11.982;2022-11-28T08:48:34;101178.73;;;5.81;100.00
54872;BME280;43914;57.680;11.982;2022-11-28T08:51:01;101184.06;;;5.81;100.00
54872;BME280;43914;57.680;11.982;2022-11-28T08:53:27;101181.11;;;5.84;100.00
54872;BME280;43914;57.680;11.982;2022-11-28T08:55:54;101172.98;;;5.86;100.00
54872;BME280;43914;57.680;11.982;2022-11-28T08:58:21;101168.82;;;5.87;100.00
54872;BME280;43914;57.680;11.982;2022-11-28T09:00:47;101178.38;;;5.90;100.00
54872;BME280;43914;57.680;11.982;2022-11-28T09:03:15;101169.39;;;5.91;100.00
54872;BME280;43914;57.680;11.982;2022-11-28T09:05:44;101178.22;;;5.91;100.00
54872;BME280;43914;57.680;11.982;2022-11-28T09:08:13;101167.06;;;5.92;100.00
54872;BME280;43914;57.680;11.982;2022-11-28T09:10:43;101165.39;;;5.91;100.00
54872;BME280;43914;57.680;11.982;2022-11-28T09:13:11;101172.41;;;5.92;100.00
54872;BME280;43914;57.680;11.982;2022-11-28T09:15:40;101168.75;;;5.93;100.00
54872;BME280;43914;57.680;11.982;2022-11-28T09:18:07;101174.22;;;5.91;100.00
54872;BME280;43914;57.680;11.982;2022-11-28T09:20:34;101168.05;;;5.91;100.00
54872;BME280;43914;57.680;11.982;2022-11-28T09:23:00;101170.56;;;5.92;100.00
54872;BME280;43914;57.680;11.982;2022-11-28T09:25:26;101177.61;;;5.94;100.00
54872;BME280;43914;57.680;11.982;2022-11-28T09:27:55;101172.63;;;5.95;100.00
54872;BME280;43914;57.680;11.982;2022-11-28T09:30:20;101162.42;;;5.94;100.00
54872;BME280;43914;57.680;11.982;2022-11-28T09:32:48;101171.12;;;5.96;100.00
54872;BME280;43914;57.680;11.982;2022-11-28T09:35:16;101163.28;;;5.95;100.00
54872;BME280;43914;57.680;11.982;2022-11-28T09:37:43;101165.80;;;5.96;100.00
54872;BME280;43914;57.680;11.982;2022-11-28T09:40:22;101163.00;;;5.98;100.00
54872;BME280;43914;57.680;11.982;2022-11-28T09:42:46;101162.84;;;5.99;100.00
54872;BME280;43914;57.680;11.982;2022-11-28T09:45:18;101163.00;;;5.98;99.78
54872;BME280;43914;57.680;11.982;2022-11-28T09:47:48;101170.84;;;5.99;99.83
54872;BME280;43914;57.680;11.982;2022-11-28T09:50:25;101163.00;;;5.98;99.02
54872;BME280;43914;57.680;11.982;2022-11-28T09:55:57;101174.23;;;6.01;99.27
54872;BME280;43914;57.680;11.982;2022-11-28T09:58:53;101165.50;;;5.99;98.89
54872;BME280;43914;57.680;11.982;2022-11-28T10:01:36;101160.07;;;6.01;98.99
54872;BME280;43914;57.680;11.982;2022-11-28T10:04:22;101161.41;;;6.01;98.81
54872;BME280;43914;57.680;11.982;2022-11-28T10:15:47;101167.27;;;6.04;98.03
54872;BME280;43914;57.680;11.982;2022-11-28T10:18:36;101153.45;;;6.05;98.26
54872;BME280;43914;57.680;11.982;2022-11-28T10:21:20;101161.64;;;6.08;97.67
54872;BME280;43914;57.680;11.982;2022-11-28T10:23:53;101160.31;;;6.08;97.11
54872;BME280;43914;57.680;11.982;2022-11-28T10:26:33;101155.83;;;6.08;97.31
54872;BME280;43914;57.680;11.982;2022-11-28T10:29:37;101155.70;;;6.10;97.28
54872;BME280;43914;57.680;11.982;2022-11-28T10:32:00;101153.03;;;6.10;97.13
54872;BME280;43914;57.680;11.982;2022-11-28T10:34:39;101160.40;;;6.12;96.53
54872;BME280;43914;57.680;11.982;2022-11-28T10:37:18;101144.04;;;6.11;96.87
54872;BME280;43914;57.680;11.982;2022-11-28T10:39:43;101147.75;;;6.14;96.80
54872;BME280;43914;57.680;11.982;2022-11-28T10:42:32;101144.78;;;6.17;96.83
54872;BME280;43914;57.680;11.982;2022-11-28T10:56:16;101138.25;;;6.15;94.87
54872;BME280;43914;57.680;11.982;2022-11-28T11:01:50;101144.92;;;6.15;94.71
54872;BME280;43914;57.680;11.982;2022-11-28T11:04:19;101137.77;;;6.16;94.59
54872;BME280;43914;57.680;11.982;2022-11-28T11:07:01;101145.42;;;6.15;94.41
54872;BME280;43914;57.680;11.982;2022-11-28T11:09:43;101134.75;;;6.15;93.73
54872;BME280;43914;57.680;11.982;2022-11-28T11:12:23;101136.44;;;6.16;93.76
54872;BME280;43914;57.680;11.982;2022-11-28T11:14:50;101141.77;;;6.16;93.86
54872;BME280;43914;57.680;11.982;2022-11-28T11:17:30;101145.83;;;6.20;93.11
54872;BME280;43914;57.680;11.982;2022-11-28T11:19:59;101139.98;;;6.20;94.07
54872;BME280;43914;57.680;11.982;2022-11-28T11:22:28;101147.69;;;6.24;93.61
54872;BME280;43914;57.680;11.982;2022-11-28T11:25:13;101137.58;;;6.27;93.24
54872;BME280;43914;57.680;11.982;2022-11-28T11:27:50;101145.93;;;6.28;92.88
54872;BME280;43914;57.680;11.982;2022-11-28T11:30:33;101144.30;;;6.31;92.60
54872;BME280;43914;57.680;11.982;2022-11-28T11:33:05;101134.83;;;6.33;91.97
54872;BME280;43914;57.680;11.982;2022-11-28T11:35:41;101144.35;;;6.35;92.03
54872;BME280;43914;57.680;11.982;2022-11-28T11:40:52;101136.55;;;6.38;90.60
54872;BME280;43914;57.680;11.982;2022-11-28T11:43:30;101147.45;;;6.41;90.40
54872;BME280;43914;57.680;11.982;2022-11-28T11:46:09;101154.47;;;6.42;90.28
54872;BME280;43914;57.680;11.982;2022-11-28T11:48:41;101150.52;;;6.46;90.69
54872;BME280;43914;57.680;11.982;2022-11-28T11:51:27;101143.84;;;6.46;89.58
54872;BME280;43914;57.680;11.982;2022-11-28T11:54:04;101142.50;;;6.46;89.58
54872;BME280;43914;57.680;11.982;2022-11-28T11:56:43;101141.64;;;6.45;89.79
54872;BME280;43914;57.680;11.982;2022-11-28T11:59:14;101142.50;;;6.46;89.79
54872;BME280;43914;57.680;11.982;2022-11-28T12:01:44;101137.34;;;6.48;89.46
54872;BME280;43914;57.680;11.982;2022-11-28T12:04:18;101142.34;;;6.47;88.33
54872;BME280;43914;57.680;11.982;2022-11-28T12:06:57;101143.67;;;6.47;89.00
54872;BME280;43914;57.680;11.982;2022-11-28T12:09:40;101138.50;;;6.46;87.71
54872;BME280;43914;57.680;11.982;2022-11-28T12:12:23;101139.63;;;6.43;87.80
54872;BME280;43914;57.680;11.982;2022-11-28T12:14:51;101144.27;;;6.41;87.95
54872;BME280;43914;57.680;11.982;2022-11-28T12:20:40;101140.56;;;6.38;86.87
54872;BME280;43914;57.680;11.982;2022-11-28T12:32:21;101141.04;;;6.38;87.92
54872;BME280;43914;57.680;11.982;2022-11-28T12:35:12;101138.32;;;6.33;86.35
54872;BME280;43914;57.680;11.982;2022-11-28T12:59:21;101135.80;;;6.18;89.64
54872;BME280;43914;57.680;11.982;2022-11-28T13:05:13;101132.37;;;6.12;89.86
54872;BME280;43914;57.680;11.982;2022-11-28T13:10:50;101129.57;;;6.03;89.40
54872;BME280;43914;57.680;11.982;2022-11-28T13:13:40;101128.93;;;6.05;89.79
54872;BME280;43914;57.680;11.982;2022-11-28T13:16:48;101132.23;;;6.03;90.02
54872;BME280;43914;57.680;11.982;2022-11-28T13:19:27;101122.07;;;6.03;89.01
54872;BME280;43914;57.680;11.982;2022-11-28T13:22:21;101124.39;;;6.02;89.57
54872;BME280;43914;57.680;11.982;2022-11-28T13:28:09;101121.98;;;5.99;88.69
54872;BME280;43914;57.680;11.982;2022-11-28T13:30:49;101118.63;;;5.97;89.00
54872;BME280;43914;57.680;11.982;2022-11-28T13:35:58;101115.73;;;5.94;88.67
54872;BME280;43914;57.680;11.982;2022-11-28T13:41:48;101125.94;;;5.95;88.59
54872;BME280;43914;57.680;11.982;2022-11-28T13:44:24;101127.27;;;5.95;88.68
54872;BME280;43914;57.680;11.982;2022-11-28T13:46:53;101114.06;;;5.93;88.55
54872;BME280;43914;57.680;11.982;2022-11-28T13:49:22;101124.25;;;5.94;88.35
54872;BME280;43914;57.680;11.982;2022-11-28T13:54:40;101119.05;;;5.92;88.22
54872;BME280;43914;57.680;11.982;2022-11-28T13:57:23;101123.53;;;5.91;88.02
54872;BME280;43914;57.680;11.982;2022-11-28T14:00:00;101124.03;;;5.91;88.09
54872;BME280;43914;57.680;11.982;2022-11-28T14:02:40;101127.34;;;5.89;87.70
54872;BME280;43914;57.680;11.982;2022-11-28T14:05:23;101138.65;;;5.87;87.70
54872;BME280;43914;57.680;11.982;2022-11-28T14:08:01;101139.29;;;5.85;87.74
54872;BME280;43914;57.680;11.982;2022-11-28T14:10:45;101137.61;;;5.84;88.30
54872;BME280;43914;57.680;11.982;2022-11-28T14:16:04;101136.85;;;5.77;87.89
54872;BME280;43914;57.680;11.982;2022-11-28T14:26:59;101147.37;;;5.69;88.27
54872;BME280;43914;57.680;11.982;2022-11-28T14:29:35;101149.34;;;5.67;88.37
54872;BME280;43914;57.680;11.982;2022-11-28T14:32:04;101148.98;;;5.66;88.41
54872;BME280;43914;57.680;11.982;2022-11-28T14:34:45;101147.30;;;5.65;88.77
54872;BME280;43914;57.680;11.982;2022-11-28T14:39:56;101146.39;;;5.60;88.27
54872;BME280;43914;57.680;11.982;2022-11-28T14:44:59;101139.31;;;5.55;89.02
54872;BME280;43914;57.680;11.982;2022-11-28T14:47:29;101148.92;;;5.52;89.52
54872;BME280;43914;57.680;11.982;2022-11-28T14:52:42;101135.12;;;5.43;90.08
54872;BME280;43914;57.680;11.982;2022-11-28T14:55:21;101135.41;;;5.40;90.23
54872;BME280;43914;57.680;11.982;2022-11-28T14:57:56;101143.52;;;5.38;90.24
54872;BME280;43914;57.680;11.982;2022-11-28T15:00:25;101137.14;;;5.35;90.28
54872;BME280;43914;57.680;11.982;2022-11-28T15:06:14;101139.74;;;5.31;90.46
54872;BME280;43914;57.680;11.982;2022-11-28T15:08:52;101127.41;;;5.30;90.24
54872;BME280;43914;57.680;11.982;2022-11-28T15:11:36;101126.22;;;5.18;90.20
54872;BME280;43914;57.680;11.982;2022-11-28T15:14:22;101151.27;;;5.31;90.27
54872;BME280;43914;57.680;11.982;2022-11-28T15:17:02;101149.58;;;5.30;90.49
54872;BME280;43914;57.680;11.982;2022-11-28T15:19:44;101142.06;;;5.30;89.83
54872;BME280;43914;57.680;11.982;2022-11-28T15:22:32;101145.42;;;5.32;90.17
54872;BME280;43914;57.680;11.982;2022-11-28T15:25:21;101149.58;;;5.30;90.12
54872;BME280;43914;57.680;11.982;2022-11-28T15:27:49;101162.68;;;5.28;89.96
54872;BME280;43914;57.680;11.982;2022-11-28T15:30:20;101148.50;;;5.27;89.75
54872;BME280;43914;57.680;11.982;2022-11-28T15:32:56;101150.34;;;5.27;90.08
54872;BME280;43914;57.680;11.982;2022-11-28T15:35:23;101154.33;;;5.27;90.03
54872;BME280;43914;57.680;11.982;2022-11-28T15:37:55;101149.64;;;5.25;89.89
54872;BME280;43914;57.680;11.982;2022-11-28T15:42:57;101158.27;;;5.23;89.97